首页
METAR-TAF:

METAR-TAF

机场 :

Illesheim, 德国

纬度: 49-28N, 经度: 010-23E, 海拔: 325米

当前天气观测

该预报发布于19小时和3分钟前的02:56 UTC
静风
温度 -1°C
湿度 100%
气压 1017 hPa

METAR: ETIK 280256Z AUTO 00000KT M M M M01/M01 A3004 RMK AO2 SLP180 T10131013 RVRNO PWINO

时间: 22:59 (21:59 UTC)

预报

该预报发布于22小时和55分钟前的23:04 UTC
预报有效从27日的 23点(UTC)到 29日的 05点(UTC)
风速8节,风向东转东北
能见度10公里或以上
天空无云
成为
从 29日的 00点(UTC)到 29日的 01点(UTC)
风速7节,风向
能见度10公里或以上
散云层高于2000英尺
成为
从 29日的 02点(UTC)到 29日的 03点(UTC)
风速8节,风向
能見度: 2922
多云层高于1000英尺

TAF: ETIK 272304Z 2723/2905 07008KT 9999 SKC QNH3000INS BECMG 2900/2901 01007KT 9999 SCT020 QNH3008INS BECMG 2902/2903 35008KT 9999 BKN010 QNH3010INS TX12/2812Z TN01/2805Z LAST NO AMDS AFT 2800 NEXT 2922

超过4000个机场的气象观测和天气预报(METAR&TAF报告)。

可查询的气象台以黄色和红色小点在地图上表示。

将鼠标移到小点上方,可查看气象台名称。

然后点击查看天气观测和预报。

如需切换地图:点击带黑十字的绿色按钮放大地图;点击带横线的绿色按钮缩小地图;或者点击绿色箭头查看邻近地区的地图。


METAR-TAF: